Bowling Green, South Carolina
Current Conditions -  °F | °C
As of 12:20 PM on Sunday 23 Nov 2014 (Local Time) from KAKH Reporting Station
Moderate Rain Moderate Rain  
Wind Chill: 44°   Ceiling: 400
Heat Index: 47°   Visibility: 1.5mi
Dew Point: 44°   Wind: 6mph
Humidity: 90%   Direction: 10°N
Pressure: 30.07"   Gusts: NA
Location:  35.15°N, 81.21°W
Report Text: KAKH 231720Z AUTO 01005KT 1 1/2SM RA BR BKN004 OVC011 08/07 A3007 RMK AO2 P0004 T00830067
Loading
Personal Weather Stations






























Interactive Weather Map New forecast layout! Learn more

10-Day Weather Forecast

Advertisements
Track Severe Weather on mobile